createdAt,value
2017-11-21T00:01:20.356Z,21.92
2017-11-21T00:03:48.111Z,21.35
2017-11-21T00:06:15.912Z,20.50
2017-11-21T00:08:44.430Z,21.85
2017-11-21T00:11:12.180Z,24.73
2017-11-21T00:13:39.983Z,26.73
2017-11-21T00:16:07.726Z,24.80
2017-11-21T00:18:35.472Z,22.65
2017-11-21T00:21:05.132Z,23.65
2017-11-21T00:23:32.879Z,22.80
2017-11-21T00:26:00.624Z,25.02
2017-11-21T00:28:28.439Z,24.65
2017-11-21T00:30:56.958Z,24.48
2017-11-21T00:33:24.729Z,23.17
2017-11-21T00:35:52.530Z,21.20
2017-11-21T00:38:21.088Z,22.40
2017-11-21T00:40:48.856Z,19.75
2017-11-21T00:43:16.659Z,20.23
2017-11-21T00:45:44.423Z,20.37
2017-11-21T00:48:12.186Z,24.25
2017-11-21T00:50:39.990Z,21.87
2017-11-21T00:53:07.744Z,20.83
2017-11-21T00:55:35.493Z,21.75
2017-11-21T00:58:03.339Z,22.62
2017-11-21T01:00:31.078Z,22.60
2017-11-21T01:02:59.595Z,20.58
2017-11-21T01:05:27.400Z,19.55
2017-11-21T01:07:55.147Z,21.35
2017-11-21T01:10:22.913Z,19.02
2017-11-21T01:12:50.729Z,22.05
2017-11-21T01:15:18.477Z,20.75
2017-11-21T01:17:46.228Z,22.75
2017-11-21T01:20:14.793Z,18.65
2017-11-21T01:22:43.336Z,18.70
2017-11-21T01:25:11.096Z,20.50
2017-11-21T01:27:38.901Z,20.27
2017-11-21T01:30:07.415Z,19.17
2017-11-21T01:32:35.161Z,18.98
2017-11-21T01:35:02.973Z,18.27
2017-11-21T01:37:30.724Z,18.08
2017-11-21T01:39:58.476Z,16.92
2017-11-21T01:42:26.307Z,17.73
2017-11-21T01:44:54.064Z,17.30
2017-11-21T01:47:21.820Z,19.00
2017-11-21T01:49:50.391Z,16.85
2017-11-21T01:52:18.911Z,15.52
2017-11-21T01:54:46.660Z,17.37
2017-11-21T01:57:14.464Z,17.12
2017-11-21T01:59:42.210Z,18.45
2017-11-21T02:02:09.959Z,15.15
2017-11-21T02:04:37.773Z,16.05
2017-11-21T02:07:05.527Z,17.92
2017-11-21T02:09:33.277Z,20.85
2017-11-21T02:12:01.179Z,17.92
2017-11-21T02:14:29.698Z,21.02
2017-11-21T02:16:57.448Z,15.57
2017-11-21T02:19:25.269Z,15.80
2017-11-21T02:21:53.804Z,17.25
2017-11-21T02:24:21.568Z,14.80
2017-11-21T02:26:49.372Z,16.05
2017-11-21T02:29:17.902Z,15.85
2017-11-21T02:31:45.667Z,17.87
2017-11-21T02:34:13.527Z,13.93
2017-11-21T02:36:41.292Z,15.25
2017-11-21T02:39:09.081Z,15.68
2017-11-21T02:41:36.913Z,17.45
2017-11-21T02:44:04.687Z,15.57
2017-11-21T02:46:32.456Z,15.60
2017-11-21T02:49:00.305Z,16.75
2017-11-21T02:51:28.075Z,15.13
2017-11-21T02:53:55.834Z,13.95
2017-11-21T02:56:23.657Z,15.77
2017-11-21T02:58:51.431Z,14.65
2017-11-21T03:01:19.199Z,14.25
2017-11-21T03:03:47.016Z,15.77
2017-11-21T03:06:14.764Z,15.07
2017-11-21T03:08:42.518Z,14.95
2017-11-21T03:11:11.111Z,15.45
2017-11-21T03:13:38.867Z,13.90
2017-11-21T03:16:06.710Z,14.30
2017-11-21T03:18:34.528Z,15.00
2017-11-21T03:21:14.884Z,14.70
2017-11-21T03:23:55.314Z,15.98
2017-11-21T03:26:23.071Z,14.95
2017-11-21T03:28:50.814Z,15.40
2017-11-21T03:31:18.637Z,17.55
2017-11-21T03:33:46.390Z,17.08
2017-11-21T03:36:14.918Z,16.25
2017-11-21T03:38:42.727Z,16.85
2017-11-21T03:41:11.304Z,14.43
2017-11-21T03:43:39.853Z,16.85
2017-11-21T03:46:07.669Z,16.48
2017-11-21T03:48:35.423Z,16.58
2017-11-21T03:51:03.957Z,16.77
2017-11-21T03:53:31.763Z,16.85
2017-11-21T03:56:00.280Z,18.23
2017-11-21T03:58:28.034Z,30.90
2017-11-21T04:00:55.856Z,33.60
2017-11-21T04:03:24.392Z,23.12
2017-11-21T04:05:52.155Z,21.50
2017-11-21T04:08:19.963Z,19.85
2017-11-21T04:10:48.487Z,20.95
2017-11-21T04:13:16.228Z,19.90
2017-11-21T04:15:44.387Z,19.67
2017-11-21T04:18:12.143Z,19.17
2017-11-21T04:20:40.663Z,20.23
2017-11-21T04:23:08.462Z,19.73
2017-11-21T04:25:36.207Z,19.35
2017-11-21T04:28:03.955Z,22.40
2017-11-21T04:30:31.759Z,22.05
2017-11-21T04:33:00.270Z,22.55
2017-11-21T04:35:28.020Z,20.80
2017-11-21T04:37:55.907Z,20.33
2017-11-21T04:40:23.664Z,19.95
2017-11-21T04:42:51.413Z,21.62
2017-11-21T04:45:19.223Z,20.40
2017-11-21T04:47:46.972Z,21.35
2017-11-21T04:50:14.771Z,22.50
2017-11-21T04:52:43.358Z,21.65
2017-11-21T04:55:11.871Z,20.15
2017-11-21T04:57:39.632Z,24.67
2017-11-21T05:00:07.456Z,25.40
2017-11-21T05:02:35.979Z,23.50
2017-11-21T05:05:03.732Z,24.15
2017-11-21T05:07:31.573Z,23.00
2017-11-21T05:10:00.084Z,22.30
2017-11-21T05:12:27.836Z,25.98
2017-11-21T05:14:55.644Z,26.00
2017-11-21T05:17:23.399Z,24.30
2017-11-21T05:19:51.161Z,25.55
2017-11-21T05:22:19.005Z,24.85
2017-11-21T05:24:46.773Z,23.62
2017-11-21T05:27:14.525Z,24.80
2017-11-21T05:29:42.332Z,24.00
2017-11-21T05:32:14.820Z,24.02
2017-11-21T05:34:43.414Z,27.33
2017-11-21T05:37:11.176Z,25.65
2017-11-21T05:39:38.944Z,26.20
2017-11-21T05:42:06.789Z,26.05
2017-11-21T05:44:34.538Z,27.50
2017-11-21T05:47:03.067Z,29.05
2017-11-21T05:49:30.897Z,26.85
2017-11-21T05:51:58.663Z,29.02
2017-11-21T05:54:26.460Z,28.40
2017-11-21T05:56:54.263Z,26.98
2017-11-21T05:59:22.802Z,27.27
2017-11-21T06:01:50.547Z,25.75
2017-11-21T06:04:18.469Z,26.80
2017-11-21T06:06:47.035Z,25.30
2017-11-21T06:09:14.823Z,23.25
2017-11-21T06:11:43.444Z,21.90
2017-11-21T06:14:11.195Z,19.30
2017-11-21T06:16:38.953Z,20.15
2017-11-21T06:19:06.800Z,20.73
2017-11-21T06:21:34.614Z,19.60
2017-11-21T06:24:02.383Z,20.30
2017-11-21T06:26:30.182Z,21.42
2017-11-21T06:28:58.694Z,20.02
2017-11-21T06:31:26.511Z,18.17
2017-11-21T06:33:55.121Z,18.60
2017-11-21T06:36:22.884Z,21.27
2017-11-21T06:38:50.651Z,19.98
2017-11-21T06:41:18.460Z,19.17
2017-11-21T06:43:46.219Z,17.12
2017-11-21T06:46:13.967Z,18.98
2017-11-21T06:48:41.839Z,15.63
2017-11-21T06:51:09.619Z,16.92
2017-11-21T06:53:37.401Z,15.70
2017-11-21T06:56:05.997Z,15.65
2017-11-21T06:58:33.781Z,16.20
2017-11-21T07:01:01.544Z,15.88
2017-11-21T07:03:29.400Z,14.40
2017-11-21T07:05:57.200Z,15.30
2017-11-21T07:08:24.954Z,16.40
2017-11-21T07:10:52.760Z,16.27
2017-11-21T07:13:21.291Z,16.45
2017-11-21T07:15:49.048Z,16.48
2017-11-21T07:18:16.867Z,15.88
2017-11-21T07:20:44.662Z,16.10
2017-11-21T07:23:12.413Z,21.40
2017-11-21T07:25:40.231Z,22.90
2017-11-21T07:28:08.001Z,34.50
2017-11-21T07:30:36.523Z,20.60
2017-11-21T07:33:04.361Z,19.65
2017-11-21T07:35:32.110Z,13.20
2017-11-21T07:38:00.628Z,16.40
2017-11-21T07:40:28.432Z,23.27
2017-11-21T07:42:56.187Z,18.15
2017-11-21T07:45:23.963Z,14.50
2017-11-21T07:47:51.768Z,13.48
2017-11-21T07:50:19.513Z,13.98
2017-11-21T07:52:47.615Z,16.10
2017-11-21T07:55:18.312Z,15.20
2017-11-21T07:57:55.594Z,15.95
2017-11-21T08:00:36.171Z,27.62
2017-11-21T08:03:03.931Z,20.95
2017-11-21T08:05:31.743Z,19.60
2017-11-21T08:07:59.548Z,14.87
2017-11-21T08:10:28.075Z,14.52
2017-11-21T08:12:56.665Z,13.80
2017-11-21T08:15:24.419Z,10.93
2017-11-21T08:17:52.189Z,11.60
2017-11-21T08:20:20.000Z,12.52
2017-11-21T08:22:47.800Z,12.95
2017-11-21T08:25:15.554Z,11.12
2017-11-21T08:27:43.371Z,17.77
2017-11-21T08:30:11.893Z,13.15
2017-11-21T08:32:39.635Z,17.20
2017-11-21T08:35:07.436Z,18.10
2017-11-21T08:37:35.203Z,10.63
2017-11-21T08:40:02.956Z,11.05
2017-11-21T08:42:30.765Z,11.10
2017-11-21T08:44:58.517Z,12.00
2017-11-21T08:47:27.027Z,9.40
2017-11-21T08:49:54.840Z,11.27
2017-11-21T08:52:22.591Z,11.05
2017-11-21T08:54:50.336Z,14.10
2017-11-21T08:57:18.908Z,11.57
2017-11-21T08:59:46.659Z,63.70
2017-11-21T09:02:14.408Z,52.45
2017-11-21T09:04:42.222Z,27.62
2017-11-21T09:07:09.964Z,55.25
2017-11-21T09:09:37.715Z,53.28
2017-11-21T09:12:05.518Z,94.53
2017-11-21T09:14:33.270Z,32.10
2017-11-21T09:17:01.036Z,10.85
2017-11-21T09:19:28.856Z,37.33
2017-11-21T09:21:56.620Z,14.05
2017-11-21T09:24:24.364Z,11.35
2017-11-21T09:26:52.164Z,8.27
2017-11-21T09:29:19.913Z,9.63
2017-11-21T09:31:47.668Z,6.93
2017-11-21T09:34:15.473Z,8.68
2017-11-21T09:36:43.223Z,10.02
2017-11-21T09:39:10.972Z,8.15
2017-11-21T09:41:38.781Z,6.65
2017-11-21T09:44:06.532Z,5.18
2017-11-21T09:46:35.034Z,8.07
2017-11-21T09:49:02.842Z,6.53
2017-11-21T09:51:30.590Z,8.00
2017-11-21T09:53:58.328Z,7.05
2017-11-21T09:56:26.147Z,12.23
2017-11-21T09:58:53.905Z,10.27
2017-11-21T10:01:21.659Z,9.82
2017-11-21T10:03:50.243Z,7.12
2017-11-21T10:06:18.024Z,8.13
2017-11-21T10:08:46.544Z,8.05
2017-11-21T10:11:14.352Z,5.68
2017-11-21T10:13:42.094Z,6.20
2017-11-21T10:16:09.865Z,6.55
2017-11-21T10:18:37.664Z,6.12
2017-11-21T10:21:05.421Z,12.45
2017-11-21T10:23:33.929Z,8.00
2017-11-21T10:26:01.743Z,9.20
2017-11-21T10:28:29.509Z,9.98
2017-11-21T10:30:57.265Z,8.38
2017-11-21T10:33:25.850Z,10.20
2017-11-21T10:35:53.603Z,8.35
2017-11-21T10:38:21.371Z,7.72
2017-11-21T10:40:49.173Z,7.43
2017-11-21T10:43:16.917Z,7.87
2017-11-21T10:45:45.433Z,9.48
2017-11-21T10:48:13.233Z,8.40
2017-11-21T10:50:40.975Z,9.75
2017-11-21T10:53:08.724Z,9.55
2017-11-21T10:55:36.602Z,8.75
2017-11-21T10:58:04.393Z,9.63
2017-11-21T11:00:32.920Z,8.63
2017-11-21T11:03:00.736Z,9.27
2017-11-21T11:05:29.271Z,8.93
2017-11-21T11:07:57.038Z,7.65
2017-11-21T11:10:24.853Z,6.70
2017-11-21T11:12:53.417Z,6.20
2017-11-21T11:15:21.956Z,5.95
2017-11-21T11:17:50.146Z,6.80
2017-11-21T11:20:17.916Z,6.35
2017-11-21T11:22:45.671Z,6.62
2017-11-21T11:25:13.519Z,8.07
2017-11-21T11:27:41.279Z,24.40
2017-11-21T11:30:09.040Z,11.18
2017-11-21T11:32:36.862Z,9.18
2017-11-21T11:35:04.616Z,7.12
2017-11-21T11:37:33.138Z,8.55
2017-11-21T11:40:00.947Z,8.55
2017-11-21T11:42:29.476Z,11.15
2017-11-21T11:44:57.274Z,9.20
2017-11-21T11:47:25.876Z,8.07
2017-11-21T11:49:54.408Z,5.57
2017-11-21T11:52:22.164Z,6.18
2017-11-21T11:54:49.979Z,7.47
2017-11-21T11:57:18.507Z,7.35
2017-11-21T11:59:46.277Z,7.10
2017-11-21T12:02:14.885Z,7.25
2017-11-21T12:04:42.639Z,7.40
2017-11-21T12:07:10.390Z,7.05
2017-11-21T12:09:38.227Z,7.55
2017-11-21T12:12:05.979Z,7.93
2017-11-21T12:14:33.731Z,7.10
2017-11-21T12:17:01.544Z,8.32
2017-11-21T12:19:29.307Z,7.55
2017-11-21T12:21:57.072Z,7.65
2017-11-21T12:24:24.900Z,8.45
2017-11-21T12:26:52.656Z,7.75
2017-11-21T12:29:20.407Z,7.03
2017-11-21T12:31:48.214Z,6.70
2017-11-21T12:34:16.734Z,6.97
2017-11-21T12:36:45.255Z,8.05
2017-11-21T12:39:13.067Z,8.50
2017-11-21T12:41:41.584Z,8.05
2017-11-21T12:44:09.347Z,8.77
2017-11-21T12:46:37.193Z,9.82
2017-11-21T12:49:05.304Z,8.80
2017-11-21T12:51:33.071Z,9.80
2017-11-21T12:54:00.892Z,8.98
2017-11-21T12:56:28.677Z,8.65
2017-11-21T12:58:56.442Z,9.43
2017-11-21T13:01:24.288Z,10.50
2017-11-21T13:03:52.056Z,10.77
2017-11-21T13:06:19.819Z,12.10
2017-11-21T13:08:47.642Z,13.52
2017-11-21T13:11:16.173Z,13.05
2017-11-21T13:13:44.005Z,12.55
2017-11-21T13:16:11.840Z,11.40
2017-11-21T13:18:39.627Z,11.30
2017-11-21T13:21:07.396Z,8.98
2017-11-21T13:23:35.215Z,10.70
2017-11-21T13:26:02.980Z,11.73
2017-11-21T13:28:30.748Z,9.65
2017-11-21T13:30:59.336Z,10.18
2017-11-21T13:33:27.864Z,10.68
2017-11-21T13:35:55.628Z,10.25
2017-11-21T13:38:23.451Z,11.75
2017-11-21T13:40:51.979Z,10.23
2017-11-21T13:43:20.503Z,10.80
2017-11-21T13:45:49.087Z,9.48
2017-11-21T13:48:17.625Z,11.95
2017-11-21T13:50:45.400Z,13.25
2017-11-21T13:53:13.220Z,12.98
2017-11-21T13:55:41.008Z,13.55
2017-11-21T13:58:08.767Z,13.55
2017-11-21T14:00:36.576Z,13.10
2017-11-21T14:03:05.100Z,13.50
2017-11-21T14:05:32.871Z,13.48
2017-11-21T14:08:00.696Z,12.23
2017-11-21T14:10:28.488Z,12.02
2017-11-21T14:12:56.252Z,13.02
2017-11-21T14:15:24.091Z,15.02
2017-11-21T14:17:51.855Z,17.08
2017-11-21T14:20:19.620Z,13.90
2017-11-21T14:22:47.436Z,14.77
2017-11-21T14:25:15.195Z,16.40
2017-11-21T14:27:42.991Z,16.05
2017-11-21T14:30:10.806Z,13.55
2017-11-21T14:32:38.568Z,12.95
2017-11-21T14:35:06.341Z,16.52
2017-11-21T14:37:34.933Z,16.02
2017-11-21T14:40:03.479Z,13.43
2017-11-21T14:42:31.378Z,12.05
2017-11-21T14:44:59.963Z,13.80
2017-11-21T14:47:28.495Z,13.20
2017-11-21T14:49:56.260Z,12.95
2017-11-21T14:52:24.063Z,13.85
2017-11-21T14:54:51.851Z,13.52
2017-11-21T14:57:19.637Z,13.62
2017-11-21T14:59:47.491Z,11.98
2017-11-21T15:02:15.255Z,12.10
2017-11-21T15:04:43.010Z,13.52
2017-11-21T15:07:10.822Z,12.20
2017-11-21T15:09:38.587Z,18.12
2017-11-21T15:12:06.357Z,18.25
2017-11-21T15:14:34.964Z,17.05
2017-11-21T15:17:02.737Z,17.87
2017-11-21T15:19:30.497Z,17.83
2017-11-21T15:21:58.316Z,18.37
2017-11-21T15:24:26.084Z,17.35
2017-11-21T15:26:53.870Z,17.60
2017-11-21T15:29:22.448Z,17.23
2017-11-21T15:31:50.979Z,18.17
2017-11-21T15:34:18.740Z,17.30
2017-11-21T15:36:46.556Z,16.85
2017-11-21T15:39:14.323Z,18.08
2017-11-21T15:41:42.075Z,18.65
2017-11-21T15:44:11.332Z,18.05
2017-11-21T15:46:39.112Z,16.52
2017-11-21T15:49:06.853Z,18.67
2017-11-21T15:51:34.658Z,16.15
2017-11-21T15:54:03.185Z,16.12
2017-11-21T15:56:30.952Z,18.80
2017-11-21T15:58:58.770Z,18.17
2017-11-21T16:01:26.528Z,20.05
2017-11-21T16:03:55.062Z,16.52
2017-11-21T16:06:22.875Z,17.35
2017-11-21T16:08:50.641Z,18.05
2017-11-21T16:11:18.404Z,18.17
2017-11-21T16:13:46.215Z,19.83
2017-11-21T16:16:13.968Z,18.40
2017-11-21T16:18:41.732Z,17.95
2017-11-21T16:21:09.571Z,18.62
2017-11-21T16:23:37.319Z,21.58
2017-11-21T16:26:05.069Z,21.42
2017-11-21T16:28:32.891Z,21.40
2017-11-21T16:31:00.637Z,20.20
2017-11-21T16:33:28.388Z,21.75
2017-11-21T16:35:56.196Z,20.45
2017-11-21T16:38:24.728Z,21.37
2017-11-21T16:40:52.477Z,22.37
2017-11-21T16:43:20.295Z,22.95
2017-11-21T16:45:48.824Z,23.77
2017-11-21T16:48:16.575Z,24.80
2017-11-21T16:50:44.384Z,29.42
2017-11-21T16:53:12.140Z,37.03
2017-11-21T16:55:40.700Z,30.08
2017-11-21T16:58:08.540Z,29.23
2017-11-21T17:00:36.298Z,32.30
2017-11-21T17:03:04.058Z,31.55
2017-11-21T17:05:31.871Z,29.17
2017-11-21T17:08:00.388Z,26.77
2017-11-21T17:10:28.913Z,27.62
2017-11-21T17:12:56.745Z,27.33
2017-11-21T17:15:24.491Z,28.62
2017-11-21T17:17:53.126Z,27.83
2017-11-21T17:20:20.932Z,24.67
2017-11-21T17:22:49.475Z,30.15
2017-11-21T17:25:17.234Z,27.08
2017-11-21T17:27:45.043Z,32.13
2017-11-21T17:30:13.566Z,26.65
2017-11-21T17:32:41.320Z,27.95
2017-11-21T17:35:09.141Z,28.30
2017-11-21T17:37:37.657Z,25.88
2017-11-21T17:40:05.414Z,29.90
2017-11-21T17:42:33.228Z,26.35
2017-11-21T17:45:01.021Z,25.00
2017-11-21T17:47:28.770Z,26.70
2017-11-21T17:49:57.359Z,32.88
2017-11-21T17:52:25.128Z,28.85
2017-11-21T17:54:52.883Z,27.73
2017-11-21T17:57:20.694Z,27.52
2017-11-21T17:59:48.452Z,26.48
2017-11-21T18:02:16.211Z,26.40
2017-11-21T18:04:44.028Z,32.78
2017-11-21T18:07:11.788Z,34.80
2017-11-21T18:09:40.324Z,31.77
2017-11-21T18:12:08.126Z,33.70
2017-11-21T18:14:35.873Z,27.30
2017-11-21T18:17:03.633Z,32.65
2017-11-21T18:19:32.211Z,30.00
2017-11-21T18:21:59.961Z,25.67
2017-11-21T18:24:27.708Z,32.92
2017-11-21T18:26:55.540Z,33.38
2017-11-21T18:29:23.300Z,28.95
2017-11-21T18:31:51.048Z,32.95
2017-11-21T18:34:18.869Z,29.52
2017-11-21T18:36:46.622Z,33.75
2017-11-21T18:39:14.372Z,30.65
2017-11-21T18:41:42.178Z,35.85
2017-11-21T18:44:10.698Z,28.20
2017-11-21T18:46:38.480Z,35.10
2017-11-21T18:49:06.300Z,28.50
2017-11-21T18:51:34.159Z,31.50
2017-11-21T18:54:01.928Z,31.30
2017-11-21T18:56:29.754Z,29.52
2017-11-21T18:58:57.504Z,33.53
2017-11-21T19:01:25.255Z,35.58
2017-11-21T19:03:53.069Z,32.95
2017-11-21T19:06:21.616Z,34.38
2017-11-21T19:08:49.365Z,32.85
2017-11-21T19:11:17.174Z,38.17
2017-11-21T19:13:45.696Z,38.40
2017-11-21T19:16:13.458Z,38.88
2017-11-21T19:18:41.290Z,33.90
2017-11-21T19:21:09.124Z,39.00
2017-11-21T19:23:36.878Z,35.88
2017-11-21T19:26:04.700Z,36.15
2017-11-21T19:28:32.490Z,33.65
2017-11-21T19:31:00.241Z,34.55
2017-11-21T19:33:28.069Z,33.80
2017-11-21T19:35:55.830Z,31.33
2017-11-21T19:38:23.590Z,33.28
2017-11-21T19:40:51.396Z,31.75
2017-11-21T19:43:19.144Z,33.60
2017-11-21T19:45:46.898Z,46.30
2017-11-21T19:48:14.709Z,37.08
2017-11-21T19:50:43.224Z,37.38
2017-11-21T19:53:10.971Z,35.92
2017-11-21T19:55:38.790Z,36.20
2017-11-21T19:58:06.559Z,42.85
2017-11-21T20:00:35.092Z,37.75
2017-11-21T20:03:02.901Z,37.38
2017-11-21T20:05:30.742Z,37.33
2017-11-21T20:07:59.283Z,38.20
2017-11-21T20:10:27.198Z,37.22
2017-11-21T20:12:54.976Z,37.95
2017-11-21T20:15:22.768Z,36.25
2017-11-21T20:17:51.351Z,35.72
2017-11-21T20:20:19.107Z,38.67
2017-11-21T20:22:47.628Z,38.85
2017-11-21T20:25:16.170Z,43.55
2017-11-21T20:27:44.715Z,39.92
2017-11-21T20:30:12.475Z,37.40
2017-11-21T20:32:40.283Z,41.70
2017-11-21T20:35:08.040Z,41.08
2017-11-21T20:37:35.787Z,42.78
2017-11-21T20:40:04.389Z,40.83
2017-11-21T20:42:32.180Z,41.22
2017-11-21T20:44:59.937Z,43.33
2017-11-21T20:47:27.761Z,41.70
2017-11-21T20:49:56.286Z,46.45
2017-11-21T20:52:24.045Z,47.78
2017-11-21T20:54:52.625Z,49.17
2017-11-21T20:57:20.379Z,47.65
2017-11-21T20:59:48.129Z,46.05
2017-11-21T21:02:15.959Z,50.45
2017-11-21T21:04:44.470Z,48.97
2017-11-21T21:07:12.250Z,47.03
2017-11-21T21:09:40.062Z,46.05
2017-11-21T21:12:08.648Z,46.55
2017-11-21T21:14:40.585Z,47.88
2017-11-21T21:17:09.464Z,52.80
2017-11-21T21:19:37.230Z,41.50
2017-11-21T21:22:04.992Z,43.42
2017-11-21T21:24:32.845Z,41.00
2017-11-21T21:27:03.262Z,44.95
2017-11-21T21:29:31.023Z,45.95
2017-11-21T21:31:58.850Z,47.28
2017-11-21T21:34:26.654Z,44.25
2017-11-21T21:36:54.409Z,46.13
2017-11-21T21:39:22.218Z,48.45
2017-11-21T21:41:50.729Z,43.55
2017-11-21T21:44:19.538Z,44.28
2017-11-21T21:46:47.376Z,46.08
2017-11-21T21:49:15.141Z,48.67
2017-11-21T21:51:42.994Z,46.45
2017-11-21T21:54:10.896Z,49.03
2017-11-21T21:56:38.650Z,45.30
2017-11-21T21:59:06.492Z,43.78
2017-11-21T22:01:34.345Z,46.10
2017-11-21T22:04:02.172Z,44.78
2017-11-21T22:06:29.929Z,45.05
2017-11-21T22:08:57.754Z,42.42
2017-11-21T22:11:25.558Z,44.90
2017-11-21T22:13:53.306Z,46.25
2017-11-21T22:16:21.112Z,43.15
2017-11-21T22:18:48.907Z,42.70
2017-11-21T22:21:16.651Z,45.03
2017-11-21T22:23:44.463Z,45.38
2017-11-21T22:26:12.215Z,45.22
2017-11-21T22:28:39.961Z,43.42
2017-11-21T22:31:08.539Z,43.92
2017-11-21T22:33:36.298Z,43.38
2017-11-21T22:36:04.084Z,43.40
2017-11-21T22:38:31.993Z,43.87
2017-11-21T22:40:59.746Z,45.65
2017-11-21T22:43:28.314Z,45.60
2017-11-21T22:45:56.884Z,43.53
2017-11-21T22:48:24.841Z,40.85
2017-11-21T22:50:52.592Z,43.95
2017-11-21T22:53:20.415Z,45.12
2017-11-21T22:55:48.212Z,44.78
2017-11-21T22:58:15.959Z,40.85
2017-11-21T23:00:43.767Z,46.13
2017-11-21T23:03:11.531Z,45.12
2017-11-21T23:05:40.048Z,43.33
2017-11-21T23:08:07.854Z,43.10
2017-11-21T23:10:35.622Z,43.53
2017-11-21T23:13:03.393Z,44.65
2017-11-21T23:15:31.219Z,43.83
2017-11-21T23:17:58.999Z,43.92
2017-11-21T23:20:26.774Z,47.42
2017-11-21T23:22:54.620Z,44.03
2017-11-21T23:25:22.385Z,43.67
2017-11-21T23:27:50.165Z,46.97
2017-11-21T23:30:18.050Z,47.25
2017-11-21T23:32:45.834Z,46.10
2017-11-21T23:35:13.613Z,48.80
2017-11-21T23:37:41.450Z,44.53
2017-11-21T23:40:09.224Z,47.33
2017-11-21T23:42:36.999Z,46.72
2017-11-21T23:45:04.841Z,42.05
2017-11-21T23:47:32.602Z,52.50
2017-11-21T23:50:00.372Z,50.78
2017-11-21T23:52:28.208Z,47.97
2017-11-21T23:54:56.741Z,44.30
2017-11-21T23:57:24.507Z,51.58
2017-11-21T23:59:52.355Z,46.10
